createdAt,value
2022-10-06T00:01:45.095Z,13.40
2022-10-06T00:06:47.490Z,13.49
2022-10-06T00:11:49.849Z,13.41
2022-10-06T00:16:52.189Z,13.69
2022-10-06T00:21:54.573Z,13.75
2022-10-06T00:26:56.909Z,13.67
2022-10-06T00:31:59.219Z,13.57
2022-10-06T00:37:02.746Z,13.62
2022-10-06T00:42:05.374Z,13.79
2022-10-06T00:47:08.555Z,13.65
2022-10-06T00:52:13.402Z,13.80
2022-10-06T00:57:16.057Z,13.83
2022-10-06T01:02:21.185Z,13.66
2022-10-06T01:07:25.990Z,13.72
2022-10-06T01:12:29.870Z,13.78
2022-10-06T01:17:52.535Z,13.55
2022-10-06T01:23:06.718Z,13.55
2022-10-06T01:28:09.991Z,13.45
2022-10-06T01:33:12.623Z,13.47
2022-10-06T01:38:15.744Z,13.35
2022-10-06T01:43:19.184Z,13.24
2022-10-06T01:48:21.670Z,13.28
2022-10-06T01:53:25.064Z,13.35
2022-10-06T01:58:27.890Z,13.29
2022-10-06T02:03:30.717Z,13.14
2022-10-06T02:08:33.344Z,13.21
2022-10-06T02:13:38.404Z,13.19
2022-10-06T02:18:41.240Z,13.05
2022-10-06T02:23:43.637Z,12.89
2022-10-06T02:28:47.357Z,12.87
2022-10-06T02:33:54.193Z,12.90
2022-10-06T02:38:59.092Z,12.80
2022-10-06T02:44:01.907Z,12.79
2022-10-06T02:49:05.644Z,12.67
2022-10-06T02:54:10.077Z,12.75
2022-10-06T02:59:12.423Z,12.72
2022-10-06T03:04:17.441Z,12.81
2022-10-06T03:09:20.786Z,12.76
2022-10-06T03:14:23.526Z,12.69
2022-10-06T03:19:26.601Z,12.70
2022-10-06T03:24:29.689Z,12.56
2022-10-06T03:29:35.171Z,12.65
2022-10-06T03:34:38.899Z,12.79
2022-10-06T03:39:44.462Z,12.93
2022-10-06T03:44:47.426Z,12.87
2022-10-06T03:49:49.795Z,12.88
2022-10-06T03:54:52.489Z,12.81
2022-10-06T03:59:59.291Z,12.68
2022-10-06T04:05:01.895Z,12.78
2022-10-06T04:10:05.966Z,12.79
2022-10-06T04:15:08.723Z,12.83
2022-10-06T04:20:11.930Z,12.81
2022-10-06T04:25:14.294Z,13.06
2022-10-06T04:30:17.029Z,13.05
2022-10-06T04:35:20.313Z,13.01
2022-10-06T04:40:22.923Z,12.99
2022-10-06T04:45:25.932Z,13.31
2022-10-06T04:50:28.378Z,13.22
2022-10-06T04:55:42.897Z,13.72
2022-10-06T05:00:45.238Z,13.73
2022-10-06T05:05:47.654Z,14.05
2022-10-06T05:10:50.242Z,14.29
2022-10-06T05:15:57.296Z,14.47
2022-10-06T05:21:06.804Z,14.35
2022-10-06T05:26:12.467Z,14.46
2022-10-06T05:31:20.299Z,14.53
2022-10-06T05:36:25.699Z,14.71
2022-10-06T05:41:32.219Z,14.77
2022-10-06T05:46:37.570Z,14.91
2022-10-06T05:51:40.651Z,14.83
2022-10-06T05:56:57.121Z,14.71
2022-10-06T06:02:00.371Z,14.55
2022-10-06T06:07:16.481Z,14.77
2022-10-06T06:12:20.667Z,14.93
2022-10-06T06:17:33.419Z,15.10
2022-10-06T06:22:38.110Z,15.34
2022-10-06T06:27:42.344Z,15.38
2022-10-06T06:32:45.331Z,15.48
2022-10-06T06:37:49.116Z,15.49
2022-10-06T06:42:53.811Z,15.76
2022-10-06T06:48:22.758Z,15.88
2022-10-06T06:53:26.026Z,15.98
2022-10-06T06:58:33.075Z,16.23
2022-10-06T07:03:56.610Z,16.40
2022-10-06T07:08:59.706Z,16.84
2022-10-06T07:14:12.628Z,17.04
2022-10-06T07:19:38.652Z,17.22
2022-10-06T07:25:00.508Z,17.09
2022-10-06T07:30:04.331Z,17.29
2022-10-06T07:35:07.787Z,17.46
2022-10-06T07:40:12.027Z,17.36
2022-10-06T07:45:38.991Z,17.48
2022-10-06T07:50:48.001Z,17.54
2022-10-06T07:55:53.250Z,17.40
2022-10-06T08:01:05.600Z,17.45
2022-10-06T08:06:14.333Z,17.92
2022-10-06T08:11:16.831Z,17.90
2022-10-06T08:16:21.465Z,18.03
2022-10-06T08:21:26.782Z,17.93
2022-10-06T08:26:31.096Z,18.07
2022-10-06T08:31:33.467Z,18.02
2022-10-06T08:36:35.954Z,17.95
2022-10-06T08:41:46.727Z,18.23
2022-10-06T08:46:56.414Z,18.47
2022-10-06T08:52:14.389Z,18.37
2022-10-06T08:57:22.583Z,18.53
2022-10-06T09:02:39.318Z,18.72
2022-10-06T09:08:12.531Z,18.99
2022-10-06T09:13:22.220Z,19.08
2022-10-06T09:19:03.487Z,19.08
2022-10-06T09:24:11.183Z,19.13
2022-10-06T09:29:14.712Z,18.94
2022-10-06T09:34:22.320Z,19.15
2022-10-06T09:39:26.413Z,18.70
2022-10-06T09:44:31.217Z,18.41
2022-10-06T09:49:33.826Z,18.64
2022-10-06T09:54:37.613Z,19.04
2022-10-06T09:59:47.015Z,19.04
2022-10-06T10:04:54.922Z,18.97
2022-10-06T10:10:18.668Z,19.40
2022-10-06T10:15:20.927Z,19.30
2022-10-06T10:20:28.277Z,19.45
2022-10-06T10:25:31.006Z,19.82
2022-10-06T10:30:45.440Z,19.97
2022-10-06T10:35:52.030Z,18.95
2022-10-06T10:41:00.976Z,18.82
2022-10-06T10:46:07.210Z,18.96
2022-10-06T10:51:15.034Z,19.14
2022-10-06T10:56:20.710Z,18.64
2022-10-06T11:01:55.164Z,18.68
2022-10-06T11:07:03.567Z,18.94
2022-10-06T11:12:17.609Z,19.67
2022-10-06T11:17:44.657Z,19.73
2022-10-06T11:23:08.278Z,19.89
2022-10-06T11:28:25.216Z,20.18
2022-10-06T11:33:30.600Z,20.13
2022-10-06T11:38:40.627Z,20.60
2022-10-06T11:43:48.991Z,20.25
2022-10-06T11:48:51.311Z,20.58
2022-10-06T11:53:54.528Z,20.61
2022-10-06T11:58:56.814Z,20.66
2022-10-06T12:04:24.341Z,20.49
2022-10-06T12:09:33.173Z,20.00
2022-10-06T12:16:35.264Z,18.64
2022-10-06T12:20:17.532Z,19.36
2022-10-06T12:25:43.357Z,19.57
2022-10-06T12:31:07.605Z,19.03
2022-10-06T12:36:23.142Z,19.06
2022-10-06T12:42:02.958Z,19.70
2022-10-06T12:47:21.349Z,20.10
2022-10-06T12:52:51.657Z,20.15
2022-10-06T12:57:54.316Z,20.39
2022-10-06T13:02:58.504Z,20.63
2022-10-06T13:08:06.664Z,20.95
2022-10-06T13:13:24.792Z,20.52
2022-10-06T13:18:28.762Z,20.83
2022-10-06T13:23:33.269Z,21.34
2022-10-06T13:28:44.250Z,21.10
2022-10-06T13:33:49.521Z,21.14
2022-10-06T13:38:53.429Z,20.32
2022-10-06T13:44:05.097Z,20.06
2022-10-06T13:49:43.186Z,20.93
2022-10-06T13:54:58.693Z,20.68
2022-10-06T14:00:16.628Z,20.38
2022-10-06T14:05:27.826Z,20.19
2022-10-06T14:10:48.463Z,20.03
2022-10-06T14:15:53.785Z,20.07
2022-10-06T14:20:57.751Z,20.09
2022-10-06T14:26:00.370Z,19.43
2022-10-06T14:31:02.777Z,19.64
2022-10-06T14:36:05.940Z,19.49
2022-10-06T14:41:08.371Z,19.73
2022-10-06T14:46:11.673Z,19.58
2022-10-06T14:51:14.062Z,19.55
2022-10-06T14:56:16.636Z,19.31
2022-10-06T15:01:20.861Z,19.45
2022-10-06T15:06:42.418Z,19.05
2022-10-06T15:11:44.931Z,18.62
2022-10-06T15:16:47.659Z,18.57
2022-10-06T15:21:50.365Z,18.30
2022-10-06T15:27:11.357Z,18.29
2022-10-06T15:32:14.110Z,18.23
2022-10-06T15:37:16.869Z,17.95
2022-10-06T15:42:21.730Z,17.58
2022-10-06T15:47:24.900Z,17.11
2022-10-06T15:52:27.411Z,17.00
2022-10-06T15:57:31.027Z,16.48
2022-10-06T16:02:35.712Z,16.48
2022-10-06T16:07:38.424Z,16.14
2022-10-06T16:12:40.754Z,15.73
2022-10-06T16:17:43.020Z,15.49
2022-10-06T16:22:45.449Z,15.23
2022-10-06T16:27:47.723Z,15.28
2022-10-06T16:32:50.086Z,14.86
2022-10-06T16:37:52.380Z,14.84
2022-10-06T16:42:54.881Z,14.61
2022-10-06T16:47:57.322Z,14.19
2022-10-06T16:52:59.602Z,13.87
2022-10-06T16:58:01.862Z,13.83
2022-10-06T17:03:04.232Z,13.77
2022-10-06T17:08:06.513Z,13.75
2022-10-06T17:13:08.800Z,13.43
2022-10-06T17:18:11.065Z,13.29
2022-10-06T17:23:13.667Z,13.18
2022-10-06T17:28:16.076Z,13.18
2022-10-06T17:33:19.413Z,13.23
2022-10-06T17:38:21.941Z,13.35
2022-10-06T17:43:24.224Z,13.33
2022-10-06T17:48:27.268Z,12.88
2022-10-06T17:53:29.612Z,12.65
2022-10-06T17:58:31.899Z,12.65
2022-10-06T18:03:39.048Z,12.41
2022-10-06T18:08:45.347Z,12.54
2022-10-06T18:13:49.578Z,12.64
2022-10-06T18:18:53.711Z,12.65
2022-10-06T18:23:55.988Z,12.59
2022-10-06T18:28:58.273Z,12.54
2022-10-06T18:39:23.767Z,12.38
2022-10-06T18:44:44.885Z,12.41
2022-10-06T18:49:47.249Z,12.78
2022-10-06T18:54:50.177Z,12.92
2022-10-06T18:59:52.732Z,12.98
2022-10-06T19:04:55.316Z,13.10
2022-10-06T19:09:57.721Z,13.15
2022-10-06T19:15:00.210Z,13.17
2022-10-06T19:20:02.487Z,13.04
2022-10-06T19:25:05.106Z,13.01
2022-10-06T19:30:07.903Z,12.91
2022-10-06T19:35:10.885Z,12.49
2022-10-06T19:40:13.434Z,12.33
2022-10-06T19:45:17.021Z,12.39
2022-10-06T19:50:19.672Z,12.19
2022-10-06T19:55:23.423Z,12.21
2022-10-06T20:00:26.790Z,12.24
2022-10-06T20:05:29.398Z,12.33
2022-10-06T20:10:32.957Z,12.33
2022-10-06T20:15:35.495Z,12.15
2022-10-06T20:20:37.975Z,11.96
2022-10-06T20:25:40.427Z,12.08
2022-10-06T20:30:49.726Z,12.37
2022-10-06T20:35:52.049Z,12.33
2022-10-06T20:40:54.429Z,12.20
2022-10-06T20:45:57.493Z,11.93
2022-10-06T20:50:59.875Z,11.69
2022-10-06T20:56:02.249Z,11.79
2022-10-06T21:01:12.965Z,11.93
2022-10-06T21:06:16.630Z,11.85
2022-10-06T21:11:20.575Z,11.66
2022-10-06T21:16:44.115Z,11.77
2022-10-06T21:21:52.040Z,12.00
2022-10-06T21:26:54.715Z,12.05
2022-10-06T21:31:57.067Z,11.94
2022-10-06T21:36:59.481Z,11.91
2022-10-06T21:42:02.005Z,12.19
2022-10-06T21:47:04.506Z,12.19
2022-10-06T21:52:07.002Z,12.32
2022-10-06T21:57:09.428Z,12.25
2022-10-06T22:02:11.924Z,12.18
2022-10-06T22:07:14.266Z,12.15
2022-10-06T22:12:16.630Z,12.06
2022-10-06T22:17:18.955Z,11.90
2022-10-06T22:22:21.452Z,11.87
2022-10-06T22:27:25.255Z,11.73
2022-10-06T22:32:27.592Z,11.84
2022-10-06T22:37:30.105Z,11.76
2022-10-06T22:42:32.517Z,11.44
2022-10-06T22:47:34.841Z,11.43
2022-10-06T22:52:37.165Z,11.35
2022-10-06T22:57:39.505Z,11.24
2022-10-06T23:02:41.937Z,11.13
2022-10-06T23:07:44.638Z,11.09
2022-10-06T23:12:48.132Z,11.09
2022-10-06T23:17:50.601Z,11.20
2022-10-06T23:22:56.036Z,11.09
2022-10-06T23:27:59.051Z,11.08
2022-10-06T23:33:01.542Z,10.96
2022-10-06T23:38:03.857Z,10.83
2022-10-06T23:43:06.261Z,10.86
2022-10-06T23:48:08.681Z,10.79
2022-10-06T23:53:11.101Z,10.74
2022-10-06T23:58:14.844Z,10.64
